sensor_id;sensor_type;location;lat;lon;timestamp;P1;durP1;ratioP1;P2;durP2;ratioP2
53040;SDS011;39326;42.650;23.248;2022-08-01T00:00:31;2.33;;;2.13;;
53040;SDS011;39326;42.650;23.248;2022-08-01T00:02:57;3.05;;;2.10;;
53040;SDS011;39326;42.650;23.248;2022-08-01T00:05:23;3.77;;;2.43;;
53040;SDS011;39326;42.650;23.248;2022-08-01T00:07:50;4.70;;;2.53;;
53040;SDS011;39326;42.650;23.248;2022-08-01T00:10:15;2.50;;;2.30;;
53040;SDS011;39326;42.650;23.248;2022-08-01T00:12:42;2.97;;;2.10;;
53040;SDS011;39326;42.650;23.248;2022-08-01T00:15:09;2.60;;;2.20;;
53040;SDS011;39326;42.650;23.248;2022-08-01T00:17:36;3.13;;;2.30;;
53040;SDS011;39326;42.650;23.248;2022-08-01T00:20:03;3.67;;;2.57;;
53040;SDS011;39326;42.650;23.248;2022-08-01T00:22:31;2.40;;;2.00;;
53040;SDS011;39326;42.650;23.248;2022-08-01T00:24:58;2.30;;;2.10;;
53040;SDS011;39326;42.650;23.248;2022-08-01T00:27:24;3.42;;;2.13;;
53040;SDS011;39326;42.650;23.248;2022-08-01T00:29:50;2.35;;;2.17;;
53040;SDS011;39326;42.650;23.248;2022-08-01T00:32:17;4.93;;;2.40;;
53040;SDS011;39326;42.650;23.248;2022-08-01T00:34:43;2.63;;;1.97;;
53040;SDS011;39326;42.650;23.248;2022-08-01T00:37:09;2.60;;;2.07;;
53040;SDS011;39326;42.650;23.248;2022-08-01T00:39:36;2.63;;;2.13;;
53040;SDS011;39326;42.650;23.248;2022-08-01T00:42:08;6.33;;;2.00;;
53040;SDS011;39326;42.650;23.248;2022-08-01T00:44:36;2.20;;;2.00;;
53040;SDS011;39326;42.650;23.248;2022-08-01T00:47:03;2.00;;;1.80;;
53040;SDS011;39326;42.650;23.248;2022-08-01T00:49:30;2.27;;;1.80;;
53040;SDS011;39326;42.650;23.248;2022-08-01T00:51:55;3.22;;;2.22;;
53040;SDS011;39326;42.650;23.248;2022-08-01T00:54:23;3.30;;;2.10;;
53040;SDS011;39326;42.650;23.248;2022-08-01T00:56:50;2.95;;;2.00;;
53040;SDS011;39326;42.650;23.248;2022-08-01T00:59:18;3.97;;;2.05;;
53040;SDS011;39326;42.650;23.248;2022-08-01T01:01:47;2.15;;;1.95;;
53040;SDS011;39326;42.650;23.248;2022-08-01T01:04:13;2.47;;;1.93;;
53040;SDS011;39326;42.650;23.248;2022-08-01T01:20:16;3.70;;;1.80;;
53040;SDS011;39326;42.650;23.248;2022-08-01T01:22:47;2.00;;;1.77;;
53040;SDS011;39326;42.650;23.248;2022-08-01T01:30:21;3.80;;;2.20;;
53040;SDS011;39326;42.650;23.248;2022-08-01T01:32:53;1.93;;;1.70;;
53040;SDS011;39326;42.650;23.248;2022-08-01T01:35:24;2.40;;;1.40;;
53040;SDS011;39326;42.650;23.248;2022-08-01T01:37:54;1.80;;;1.60;;
53040;SDS011;39326;42.650;23.248;2022-08-01T01:40:25;3.30;;;1.50;;
53040;SDS011;39326;42.650;23.248;2022-08-01T01:42:52;2.37;;;1.90;;
53040;SDS011;39326;42.650;23.248;2022-08-01T01:45:20;2.92;;;1.90;;
53040;SDS011;39326;42.650;23.248;2022-08-01T01:47:48;1.70;;;1.60;;
53040;SDS011;39326;42.650;23.248;2022-08-01T01:50:16;2.40;;;1.97;;
53040;SDS011;39326;42.650;23.248;2022-08-01T01:52:45;1.70;;;1.60;;
53040;SDS011;39326;42.650;23.248;2022-08-01T01:55:13;3.20;;;1.63;;
53040;SDS011;39326;42.650;23.248;2022-08-01T01:57:41;2.03;;;1.90;;
53040;SDS011;39326;42.650;23.248;2022-08-01T02:00:09;4.27;;;1.90;;
53040;SDS011;39326;42.650;23.248;2022-08-01T02:02:36;2.27;;;1.90;;
53040;SDS011;39326;42.650;23.248;2022-08-01T02:05:05;2.17;;;1.83;;
53040;SDS011;39326;42.650;23.248;2022-08-01T02:07:33;1.70;;;1.60;;
53040;SDS011;39326;42.650;23.248;2022-08-01T02:10:01;2.07;;;1.87;;
53040;SDS011;39326;42.650;23.248;2022-08-01T02:12:32;3.03;;;1.70;;
53040;SDS011;39326;42.650;23.248;2022-08-01T02:15:02;2.77;;;1.97;;
53040;SDS011;39326;42.650;23.248;2022-08-01T02:17:30;2.67;;;1.80;;
53040;SDS011;39326;42.650;23.248;2022-08-01T02:19:56;3.23;;;1.70;;
53040;SDS011;39326;42.650;23.248;2022-08-01T02:22:25;2.40;;;1.40;;
53040;SDS011;39326;42.650;23.248;2022-08-01T02:25:01;2.10;;;1.90;;
53040;SDS011;39326;42.650;23.248;2022-08-01T02:27:33;1.60;;;1.50;;
53040;SDS011;39326;42.650;23.248;2022-08-01T02:30:04;1.70;;;1.60;;
53040;SDS011;39326;42.650;23.248;2022-08-01T02:32:40;3.40;;;1.63;;
53040;SDS011;39326;42.650;23.248;2022-08-01T02:35:23;2.57;;;2.10;;
53040;SDS011;39326;42.650;23.248;2022-08-01T02:37:52;1.85;;;1.60;;
53040;SDS011;39326;42.650;23.248;2022-08-01T02:40:20;2.08;;;1.80;;
53040;SDS011;39326;42.650;23.248;2022-08-01T02:42:50;2.93;;;1.80;;
53040;SDS011;39326;42.650;23.248;2022-08-01T02:45:18;2.17;;;1.70;;
53040;SDS011;39326;42.650;23.248;2022-08-01T02:47:47;3.17;;;1.97;;
53040;SDS011;39326;42.650;23.248;2022-08-01T02:50:15;2.23;;;1.87;;
53040;SDS011;39326;42.650;23.248;2022-08-01T02:52:43;1.87;;;1.53;;
53040;SDS011;39326;42.650;23.248;2022-08-01T02:55:13;2.80;;;2.10;;
53040;SDS011;39326;42.650;23.248;2022-08-01T02:57:41;3.43;;;1.70;;
53040;SDS011;39326;42.650;23.248;2022-08-01T03:00:09;2.23;;;1.87;;
53040;SDS011;39326;42.650;23.248;2022-08-01T03:02:35;2.10;;;1.90;;
53040;SDS011;39326;42.650;23.248;2022-08-01T03:05:03;2.67;;;2.10;;
53040;SDS011;39326;42.650;23.248;2022-08-01T03:07:30;2.47;;;1.83;;
53040;SDS011;39326;42.650;23.248;2022-08-01T03:09:58;2.03;;;1.70;;
53040;SDS011;39326;42.650;23.248;2022-08-01T03:12:26;1.90;;;1.80;;
53040;SDS011;39326;42.650;23.248;2022-08-01T03:14:55;4.43;;;2.00;;
53040;SDS011;39326;42.650;23.248;2022-08-01T03:17:23;1.93;;;1.77;;
53040;SDS011;39326;42.650;23.248;2022-08-01T03:19:52;2.90;;;1.80;;
53040;SDS011;39326;42.650;23.248;2022-08-01T03:22:21;3.23;;;1.80;;
53040;SDS011;39326;42.650;23.248;2022-08-01T03:24:49;3.77;;;2.13;;
53040;SDS011;39326;42.650;23.248;2022-08-01T03:27:21;2.60;;;2.30;;
53040;SDS011;39326;42.650;23.248;2022-08-01T03:29:49;3.25;;;1.90;;
53040;SDS011;39326;42.650;23.248;2022-08-01T03:32:16;3.70;;;2.40;;
53040;SDS011;39326;42.650;23.248;2022-08-01T03:34:43;2.23;;;2.03;;
53040;SDS011;39326;42.650;23.248;2022-08-01T03:37:25;2.20;;;1.87;;
53040;SDS011;39326;42.650;23.248;2022-08-01T03:39:54;3.13;;;2.57;;
53040;SDS011;39326;42.650;23.248;2022-08-01T03:42:43;2.60;;;2.40;;
53040;SDS011;39326;42.650;23.248;2022-08-01T03:45:15;3.00;;;2.00;;
53040;SDS011;39326;42.650;23.248;2022-08-01T03:47:47;2.50;;;2.30;;
53040;SDS011;39326;42.650;23.248;2022-08-01T03:50:16;3.07;;;2.53;;
53040;SDS011;39326;42.650;23.248;2022-08-01T03:52:46;2.60;;;2.40;;
53040;SDS011;39326;42.650;23.248;2022-08-01T03:55:15;3.20;;;2.37;;
53040;SDS011;39326;42.650;23.248;2022-08-01T03:57:43;3.20;;;2.50;;
53040;SDS011;39326;42.650;23.248;2022-08-01T04:00:10;3.20;;;2.20;;
53040;SDS011;39326;42.650;23.248;2022-08-01T04:02:36;4.40;;;2.50;;
53040;SDS011;39326;42.650;23.248;2022-08-01T04:05:03;3.10;;;2.60;;
53040;SDS011;39326;42.650;23.248;2022-08-01T04:07:31;2.90;;;2.60;;
53040;SDS011;39326;42.650;23.248;2022-08-01T04:09:58;3.37;;;2.10;;
53040;SDS011;39326;42.650;23.248;2022-08-01T04:12:24;3.50;;;2.40;;
53040;SDS011;39326;42.650;23.248;2022-08-01T04:14:50;2.50;;;2.30;;
53040;SDS011;39326;42.650;23.248;2022-08-01T04:17:16;5.43;;;2.63;;
53040;SDS011;39326;42.650;23.248;2022-08-01T04:19:43;2.67;;;2.27;;
53040;SDS011;39326;42.650;23.248;2022-08-01T04:22:13;2.73;;;2.40;;
53040;SDS011;39326;42.650;23.248;2022-08-01T04:24:41;3.15;;;2.50;;
53040;SDS011;39326;42.650;23.248;2022-08-01T04:27:11;2.40;;;2.20;;
53040;SDS011;39326;42.650;23.248;2022-08-01T04:29:40;2.95;;;2.40;;
53040;SDS011;39326;42.650;23.248;2022-08-01T04:32:08;2.25;;;2.05;;
53040;SDS011;39326;42.650;23.248;2022-08-01T04:34:39;6.30;;;2.73;;
53040;SDS011;39326;42.650;23.248;2022-08-01T04:37:07;2.40;;;2.20;;
53040;SDS011;39326;42.650;23.248;2022-08-01T04:39:35;3.70;;;2.50;;
53040;SDS011;39326;42.650;23.248;2022-08-01T04:42:05;8.07;;;2.83;;
53040;SDS011;39326;42.650;23.248;2022-08-01T04:44:32;3.10;;;2.50;;
53040;SDS011;39326;42.650;23.248;2022-08-01T04:46:59;3.90;;;2.60;;
53040;SDS011;39326;42.650;23.248;2022-08-01T04:49:26;3.40;;;2.42;;
53040;SDS011;39326;42.650;23.248;2022-08-01T04:51:53;2.65;;;2.45;;
53040;SDS011;39326;42.650;23.248;2022-08-01T04:54:25;6.10;;;2.40;;
53040;SDS011;39326;42.650;23.248;2022-08-01T04:56:55;4.23;;;2.30;;
53040;SDS011;39326;42.650;23.248;2022-08-01T04:59:30;2.73;;;1.93;;
53040;SDS011;39326;42.650;23.248;2022-08-01T05:02:09;4.70;;;2.27;;
53040;SDS011;39326;42.650;23.248;2022-08-01T05:04:40;2.50;;;2.30;;
53040;SDS011;39326;42.650;23.248;2022-08-01T05:07:07;4.23;;;2.80;;
53040;SDS011;39326;42.650;23.248;2022-08-01T05:09:34;2.57;;;2.30;;
53040;SDS011;39326;42.650;23.248;2022-08-01T05:12:04;3.10;;;2.45;;
53040;SDS011;39326;42.650;23.248;2022-08-01T05:14:31;2.42;;;2.22;;
53040;SDS011;39326;42.650;23.248;2022-08-01T05:17:01;4.10;;;2.53;;
53040;SDS011;39326;42.650;23.248;2022-08-01T05:19:29;4.27;;;2.60;;
53040;SDS011;39326;42.650;23.248;2022-08-01T05:21:57;3.60;;;2.60;;
53040;SDS011;39326;42.650;23.248;2022-08-01T05:24:26;2.73;;;2.53;;
53040;SDS011;39326;42.650;23.248;2022-08-01T05:26:57;4.27;;;2.40;;
53040;SDS011;39326;42.650;23.248;2022-08-01T05:29:24;2.70;;;2.50;;
53040;SDS011;39326;42.650;23.248;2022-08-01T05:31:50;2.92;;;2.47;;
53040;SDS011;39326;42.650;23.248;2022-08-01T05:34:16;2.70;;;2.50;;
53040;SDS011;39326;42.650;23.248;2022-08-01T05:36:43;3.03;;;2.27;;
53040;SDS011;39326;42.650;23.248;2022-08-01T05:39:10;2.03;;;1.92;;
53040;SDS011;39326;42.650;23.248;2022-08-01T05:41:37;3.33;;;2.50;;
53040;SDS011;39326;42.650;23.248;2022-08-01T05:44:03;3.25;;;2.22;;
53040;SDS011;39326;42.650;23.248;2022-08-01T05:46:30;3.13;;;2.37;;
53040;SDS011;39326;42.650;23.248;2022-08-01T05:48:57;2.17;;;2.08;;
53040;SDS011;39326;42.650;23.248;2022-08-01T05:51:23;3.30;;;2.55;;
53040;SDS011;39326;42.650;23.248;2022-08-01T05:53:50;2.65;;;2.45;;
53040;SDS011;39326;42.650;23.248;2022-08-01T05:56:16;3.92;;;3.17;;
53040;SDS011;39326;42.650;23.248;2022-08-01T05:58:42;3.25;;;3.00;;
53040;SDS011;39326;42.650;23.248;2022-08-01T06:01:08;3.80;;;2.63;;
53040;SDS011;39326;42.650;23.248;2022-08-01T06:03:34;3.05;;;2.75;;
53040;SDS011;39326;42.650;23.248;2022-08-01T06:06:00;3.15;;;2.42;;
53040;SDS011;39326;42.650;23.248;2022-08-01T06:08:26;2.70;;;2.50;;
53040;SDS011;39326;42.650;23.248;2022-08-01T06:10:52;2.65;;;2.22;;
53040;SDS011;39326;42.650;23.248;2022-08-01T06:13:18;2.70;;;2.45;;
53040;SDS011;39326;42.650;23.248;2022-08-01T06:15:45;3.08;;;2.60;;
53040;SDS011;39326;42.650;23.248;2022-08-01T06:18:11;3.08;;;2.75;;
53040;SDS011;39326;42.650;23.248;2022-08-01T06:20:37;3.85;;;2.45;;
53040;SDS011;39326;42.650;23.248;2022-08-01T06:23:03;2.70;;;2.50;;
53040;SDS011;39326;42.650;23.248;2022-08-01T06:25:29;2.30;;;2.10;;
53040;SDS011;39326;42.650;23.248;2022-08-01T06:27:56;2.55;;;2.35;;
53040;SDS011;39326;42.650;23.248;2022-08-01T06:30:22;2.67;;;2.28;;
53040;SDS011;39326;42.650;23.248;2022-08-01T06:32:48;2.67;;;2.47;;
53040;SDS011;39326;42.650;23.248;2022-08-01T06:35:14;5.05;;;2.20;;
53040;SDS011;39326;42.650;23.248;2022-08-01T06:37:41;3.33;;;2.55;;
53040;SDS011;39326;42.650;23.248;2022-08-01T06:40:08;2.88;;;2.10;;
53040;SDS011;39326;42.650;23.248;2022-08-01T06:42:36;4.00;;;2.30;;
53040;SDS011;39326;42.650;23.248;2022-08-01T06:45:05;3.22;;;2.40;;
53040;SDS011;39326;42.650;23.248;2022-08-01T06:47:34;2.80;;;2.45;;
53040;SDS011;39326;42.650;23.248;2022-08-01T06:50:01;2.88;;;2.63;;
53040;SDS011;39326;42.650;23.248;2022-08-01T06:52:27;2.75;;;2.50;;
53040;SDS011;39326;42.650;23.248;2022-08-01T06:54:52;2.92;;;2.30;;
53040;SDS011;39326;42.650;23.248;2022-08-01T06:57:18;2.80;;;2.55;;
53040;SDS011;39326;42.650;23.248;2022-08-01T06:59:44;3.47;;;2.50;;
53040;SDS011;39326;42.650;23.248;2022-08-01T07:02:09;3.47;;;2.65;;
53040;SDS011;39326;42.650;23.248;2022-08-01T07:04:36;4.15;;;2.92;;
53040;SDS011;39326;42.650;23.248;2022-08-01T07:07:01;4.63;;;2.38;;
53040;SDS011;39326;42.650;23.248;2022-08-01T07:09:28;4.40;;;2.45;;
53040;SDS011;39326;42.650;23.248;2022-08-01T07:11:54;3.75;;;2.88;;
53040;SDS011;39326;42.650;23.248;2022-08-01T07:14:21;2.85;;;2.60;;
53040;SDS011;39326;42.650;23.248;2022-08-01T07:16:47;4.18;;;2.50;;
53040;SDS011;39326;42.650;23.248;2022-08-01T07:19:13;4.63;;;2.40;;
53040;SDS011;39326;42.650;23.248;2022-08-01T07:21:39;2.80;;;2.60;;
53040;SDS011;39326;42.650;23.248;2022-08-01T07:24:09;3.08;;;2.70;;
53040;SDS011;39326;42.650;23.248;2022-08-01T07:26:37;3.33;;;2.80;;
53040;SDS011;39326;42.650;23.248;2022-08-01T07:29:05;4.70;;;2.90;;
53040;SDS011;39326;42.650;23.248;2022-08-01T07:31:31;3.53;;;2.70;;
53040;SDS011;39326;42.650;23.248;2022-08-01T07:33:57;4.30;;;2.90;;
53040;SDS011;39326;42.650;23.248;2022-08-01T07:36:23;2.65;;;2.45;;
53040;SDS011;39326;42.650;23.248;2022-08-01T07:38:50;3.92;;;2.67;;
53040;SDS011;39326;42.650;23.248;2022-08-01T07:41:16;2.80;;;2.60;;
53040;SDS011;39326;42.650;23.248;2022-08-01T07:43:42;2.67;;;2.47;;
53040;SDS011;39326;42.650;23.248;2022-08-01T07:46:08;3.58;;;2.92;;
53040;SDS011;39326;42.650;23.248;2022-08-01T07:48:34;2.75;;;2.50;;
53040;SDS011;39326;42.650;23.248;2022-08-01T07:51:00;3.58;;;2.78;;
53040;SDS011;39326;42.650;23.248;2022-08-01T07:53:26;5.57;;;2.50;;
53040;SDS011;39326;42.650;23.248;2022-08-01T07:55:53;3.33;;;2.40;;
53040;SDS011;39326;42.650;23.248;2022-08-01T07:58:18;2.55;;;2.35;;
53040;SDS011;39326;42.650;23.248;2022-08-01T08:00:44;3.28;;;2.45;;
53040;SDS011;39326;42.650;23.248;2022-08-01T08:03:10;2.35;;;2.15;;
53040;SDS011;39326;42.650;23.248;2022-08-01T08:05:36;2.55;;;2.22;;
53040;SDS011;39326;42.650;23.248;2022-08-01T08:08:04;4.47;;;2.63;;
53040;SDS011;39326;42.650;23.248;2022-08-01T08:10:30;2.38;;;2.17;;
53040;SDS011;39326;42.650;23.248;2022-08-01T08:12:57;2.70;;;2.50;;
53040;SDS011;39326;42.650;23.248;2022-08-01T08:15:23;2.92;;;2.60;;
53040;SDS011;39326;42.650;23.248;2022-08-01T08:17:49;4.22;;;2.78;;
53040;SDS011;39326;42.650;23.248;2022-08-01T08:20:15;3.42;;;2.30;;
53040;SDS011;39326;42.650;23.248;2022-08-01T08:22:42;2.80;;;2.55;;
53040;SDS011;39326;42.650;23.248;2022-08-01T08:25:07;2.60;;;2.40;;
53040;SDS011;39326;42.650;23.248;2022-08-01T08:27:34;2.85;;;2.30;;
53040;SDS011;39326;42.650;23.248;2022-08-01T08:30:01;2.75;;;2.53;;
53040;SDS011;39326;42.650;23.248;2022-08-01T08:32:28;3.53;;;2.60;;
53040;SDS011;39326;42.650;23.248;2022-08-01T08:34:54;5.22;;;2.80;;
53040;SDS011;39326;42.650;23.248;2022-08-01T08:37:20;3.08;;;2.55;;
53040;SDS011;39326;42.650;23.248;2022-08-01T08:39:47;3.20;;;2.90;;
53040;SDS011;39326;42.650;23.248;2022-08-01T08:42:13;3.70;;;2.42;;
53040;SDS011;39326;42.650;23.248;2022-08-01T08:44:40;2.47;;;2.28;;
53040;SDS011;39326;42.650;23.248;2022-08-01T08:47:07;2.58;;;2.38;;
53040;SDS011;39326;42.650;23.248;2022-08-01T08:49:36;2.75;;;2.55;;
53040;SDS011;39326;42.650;23.248;2022-08-01T08:52:03;3.08;;;2.38;;
53040;SDS011;39326;42.650;23.248;2022-08-01T08:54:30;2.47;;;2.30;;
53040;SDS011;39326;42.650;23.248;2022-08-01T08:56:57;2.78;;;2.58;;
53040;SDS011;39326;42.650;23.248;2022-08-01T08:59:25;3.05;;;2.20;;
53040;SDS011;39326;42.650;23.248;2022-08-01T09:01:51;2.58;;;2.38;;
53040;SDS011;39326;42.650;23.248;2022-08-01T09:04:17;2.40;;;2.20;;
53040;SDS011;39326;42.650;23.248;2022-08-01T09:06:46;2.70;;;2.50;;
53040;SDS011;39326;42.650;23.248;2022-08-01T09:09:12;2.13;;;2.03;;
53040;SDS011;39326;42.650;23.248;2022-08-01T09:11:38;2.60;;;2.40;;
53040;SDS011;39326;42.650;23.248;2022-08-01T09:14:08;2.40;;;2.20;;
53040;SDS011;39326;42.650;23.248;2022-08-01T09:16:36;2.65;;;2.45;;
53040;SDS011;39326;42.650;23.248;2022-08-01T09:21:35;2.05;;;1.95;;
53040;SDS011;39326;42.650;23.248;2022-08-01T09:24:01;2.45;;;2.22;;
53040;SDS011;39326;42.650;23.248;2022-08-01T09:26:34;2.45;;;2.25;;
53040;SDS011;39326;42.650;23.248;2022-08-01T09:29:02;2.28;;;2.17;;
53040;SDS011;39326;42.650;23.248;2022-08-01T09:31:38;4.32;;;2.28;;
53040;SDS011;39326;42.650;23.248;2022-08-01T09:34:08;4.10;;;2.47;;
53040;SDS011;39326;42.650;23.248;2022-08-01T09:36:45;2.75;;;2.20;;
53040;SDS011;39326;42.650;23.248;2022-08-01T09:39:16;2.60;;;2.40;;
53040;SDS011;39326;42.650;23.248;2022-08-01T09:41:43;2.95;;;2.58;;
53040;SDS011;39326;42.650;23.248;2022-08-01T09:44:09;3.30;;;2.50;;
53040;SDS011;39326;42.650;23.248;2022-08-01T09:46:35;3.10;;;2.80;;
53040;SDS011;39326;42.650;23.248;2022-08-01T09:49:13;3.55;;;2.65;;
53040;SDS011;39326;42.650;23.248;2022-08-01T09:51:39;3.83;;;2.30;;
53040;SDS011;39326;42.650;23.248;2022-08-01T09:54:06;2.90;;;2.70;;
53040;SDS011;39326;42.650;23.248;2022-08-01T09:56:37;2.97;;;2.63;;
53040;SDS011;39326;42.650;23.248;2022-08-01T09:59:05;2.53;;;2.40;;
53040;SDS011;39326;42.650;23.248;2022-08-01T10:01:47;2.35;;;2.25;;
53040;SDS011;39326;42.650;23.248;2022-08-01T10:04:18;2.55;;;2.35;;
53040;SDS011;39326;42.650;23.248;2022-08-01T10:06:49;2.92;;;2.30;;
53040;SDS011;39326;42.650;23.248;2022-08-01T10:09:29;2.90;;;2.70;;
53040;SDS011;39326;42.650;23.248;2022-08-01T10:11:55;2.60;;;2.40;;
53040;SDS011;39326;42.650;23.248;2022-08-01T10:14:22;3.35;;;2.53;;
53040;SDS011;39326;42.650;23.248;2022-08-01T10:16:51;3.00;;;2.70;;
53040;SDS011;39326;42.650;23.248;2022-08-01T10:19:21;2.70;;;2.50;;
53040;SDS011;39326;42.650;23.248;2022-08-01T10:21:52;2.63;;;2.42;;
53040;SDS011;39326;42.650;23.248;2022-08-01T10:24:19;2.95;;;2.70;;
53040;SDS011;39326;42.650;23.248;2022-08-01T10:26:55;2.55;;;2.35;;
53040;SDS011;39326;42.650;23.248;2022-08-01T10:29:25;4.38;;;2.45;;
53040;SDS011;39326;42.650;23.248;2022-08-01T10:31:52;2.38;;;2.17;;
53040;SDS011;39326;42.650;23.248;2022-08-01T10:34:18;2.70;;;2.30;;
53040;SDS011;39326;42.650;23.248;2022-08-01T10:36:46;2.95;;;2.30;;
53040;SDS011;39326;42.650;23.248;2022-08-01T10:39:12;2.50;;;2.30;;
53040;SDS011;39326;42.650;23.248;2022-08-01T10:41:38;2.70;;;2.50;;
53040;SDS011;39326;42.650;23.248;2022-08-01T10:44:06;2.40;;;2.08;;
53040;SDS011;39326;42.650;23.248;2022-08-01T10:46:34;2.25;;;1.92;;
53040;SDS011;39326;42.650;23.248;2022-08-01T10:51:35;2.30;;;2.10;;
53040;SDS011;39326;42.650;23.248;2022-08-01T10:54:08;3.05;;;2.10;;
53040;SDS011;39326;42.650;23.248;2022-08-01T10:56:48;1.95;;;1.85;;
53040;SDS011;39326;42.650;23.248;2022-08-01T10:59:20;3.60;;;2.15;;
53040;SDS011;39326;42.650;23.248;2022-08-01T11:02:00;2.83;;;2.30;;
53040;SDS011;39326;42.650;23.248;2022-08-01T11:04:40;3.08;;;2.10;;
53040;SDS011;39326;42.650;23.248;2022-08-01T11:07:15;2.80;;;2.40;;
53040;SDS011;39326;42.650;23.248;2022-08-01T11:10:04;1.88;;;1.77;;
53040;SDS011;39326;42.650;23.248;2022-08-01T11:12:38;2.20;;;2.10;;
53040;SDS011;39326;42.650;23.248;2022-08-01T11:17:36;2.25;;;2.05;;
53040;SDS011;39326;42.650;23.248;2022-08-01T11:20:29;2.17;;;2.08;;
53040;SDS011;39326;42.650;23.248;2022-08-01T11:25:27;3.08;;;2.00;;
53040;SDS011;39326;42.650;23.248;2022-08-01T11:30:45;2.45;;;2.25;;
53040;SDS011;39326;42.650;23.248;2022-08-01T11:33:15;2.40;;;2.03;;
53040;SDS011;39326;42.650;23.248;2022-08-01T11:36:16;2.35;;;2.13;;
53040;SDS011;39326;42.650;23.248;2022-08-01T11:38:38;2.30;;;2.10;;
53040;SDS011;39326;42.650;23.248;2022-08-01T11:41:11;2.33;;;2.20;;
53040;SDS011;39326;42.650;23.248;2022-08-01T11:43:58;2.38;;;2.20;;
53040;SDS011;39326;42.650;23.248;2022-08-01T11:49:30;3.47;;;2.30;;
53040;SDS011;39326;42.650;23.248;2022-08-01T11:54:56;3.17;;;2.40;;
53040;SDS011;39326;42.650;23.248;2022-08-01T11:57:31;2.47;;;2.28;;
53040;SDS011;39326;42.650;23.248;2022-08-01T12:00:12;2.53;;;2.40;;
53040;SDS011;39326;42.650;23.248;2022-08-01T12:02:39;2.40;;;2.20;;
53040;SDS011;39326;42.650;23.248;2022-08-01T12:05:06;2.35;;;2.15;;
53040;SDS011;39326;42.650;23.248;2022-08-01T12:07:33;2.55;;;2.25;;
53040;SDS011;39326;42.650;23.248;2022-08-01T12:12:30;2.60;;;2.40;;
53040;SDS011;39326;42.650;23.248;2022-08-01T12:14:58;4.57;;;2.70;;
53040;SDS011;39326;42.650;23.248;2022-08-01T12:19:55;2.10;;;1.95;;
53040;SDS011;39326;42.650;23.248;2022-08-01T12:22:22;2.70;;;2.50;;
53040;SDS011;39326;42.650;23.248;2022-08-01T12:24:49;4.68;;;2.38;;
53040;SDS011;39326;42.650;23.248;2022-08-01T12:27:25;2.53;;;2.33;;
53040;SDS011;39326;42.650;23.248;2022-08-01T12:29:56;4.07;;;2.55;;
53040;SDS011;39326;42.650;23.248;2022-08-01T12:32:27;3.20;;;2.47;;
53040;SDS011;39326;42.650;23.248;2022-08-01T12:34:56;2.20;;;2.10;;
53040;SDS011;39326;42.650;23.248;2022-08-01T12:37:26;2.17;;;2.08;;
53040;SDS011;39326;42.650;23.248;2022-08-01T12:39:53;3.35;;;2.50;;
53040;SDS011;39326;42.650;23.248;2022-08-01T12:42:19;2.90;;;2.70;;
53040;SDS011;39326;42.650;23.248;2022-08-01T12:44:48;2.78;;;2.58;;
53040;SDS011;39326;42.650;23.248;2022-08-01T12:47:16;3.90;;;2.63;;
53040;SDS011;39326;42.650;23.248;2022-08-01T12:49:44;2.50;;;2.30;;
53040;SDS011;39326;42.650;23.248;2022-08-01T12:52:11;2.67;;;2.47;;
53040;SDS011;39326;42.650;23.248;2022-08-01T12:57:42;2.47;;;2.35;;
53040;SDS011;39326;42.650;23.248;2022-08-01T13:02:38;3.00;;;2.30;;
53040;SDS011;39326;42.650;23.248;2022-08-01T13:05:05;3.30;;;2.40;;
53040;SDS011;39326;42.650;23.248;2022-08-01T13:07:39;2.85;;;1.90;;
53040;SDS011;39326;42.650;23.248;2022-08-01T13:10:23;3.08;;;2.20;;
53040;SDS011;39326;42.650;23.248;2022-08-01T13:12:55;2.53;;;2.13;;
53040;SDS011;39326;42.650;23.248;2022-08-01T13:15:26;2.40;;;2.20;;
53040;SDS011;39326;42.650;23.248;2022-08-01T13:17:59;5.10;;;2.70;;
53040;SDS011;39326;42.650;23.248;2022-08-01T13:20:26;2.63;;;2.42;;
53040;SDS011;39326;42.650;23.248;2022-08-01T13:23:16;2.47;;;2.28;;
53040;SDS011;39326;42.650;23.248;2022-08-01T13:25:50;2.22;;;2.13;;
53040;SDS011;39326;42.650;23.248;2022-08-01T13:28:24;3.20;;;2.22;;
53040;SDS011;39326;42.650;23.248;2022-08-01T13:31:02;2.85;;;2.58;;
53040;SDS011;39326;42.650;23.248;2022-08-01T13:33:41;2.30;;;2.17;;
53040;SDS011;39326;42.650;23.248;2022-08-01T13:36:12;2.28;;;2.17;;
53040;SDS011;39326;42.650;23.248;2022-08-01T13:38:39;2.50;;;2.30;;
53040;SDS011;39326;42.650;23.248;2022-08-01T13:41:24;2.20;;;2.00;;
53040;SDS011;39326;42.650;23.248;2022-08-01T13:43:51;2.38;;;2.20;;
53040;SDS011;39326;42.650;23.248;2022-08-01T13:46:17;2.60;;;2.10;;
53040;SDS011;39326;42.650;23.248;2022-08-01T13:48:43;3.33;;;2.10;;
53040;SDS011;39326;42.650;23.248;2022-08-01T13:51:09;2.10;;;2.00;;
53040;SDS011;39326;42.650;23.248;2022-08-01T13:53:35;2.42;;;2.33;;
53040;SDS011;39326;42.650;23.248;2022-08-01T13:56:01;2.15;;;2.05;;
53040;SDS011;39326;42.650;23.248;2022-08-01T13:58:27;2.15;;;2.00;;
53040;SDS011;39326;42.650;23.248;2022-08-01T14:00:54;2.20;;;2.10;;
53040;SDS011;39326;42.650;23.248;2022-08-01T14:03:20;2.85;;;2.20;;
53040;SDS011;39326;42.650;23.248;2022-08-01T14:05:47;2.60;;;2.08;;
53040;SDS011;39326;42.650;23.248;2022-08-01T14:08:14;2.42;;;2.22;;
53040;SDS011;39326;42.650;23.248;2022-08-01T14:10:40;2.35;;;2.25;;
53040;SDS011;39326;42.650;23.248;2022-08-01T14:13:06;2.92;;;2.22;;
53040;SDS011;39326;42.650;23.248;2022-08-01T14:15:32;2.05;;;1.85;;
53040;SDS011;39326;42.650;23.248;2022-08-01T14:17:58;2.08;;;1.98;;
53040;SDS011;39326;42.650;23.248;2022-08-01T14:20:25;2.53;;;2.33;;
53040;SDS011;39326;42.650;23.248;2022-08-01T14:22:51;2.53;;;2.00;;
53040;SDS011;39326;42.650;23.248;2022-08-01T14:25:18;2.47;;;2.25;;
53040;SDS011;39326;42.650;23.248;2022-08-01T14:27:44;4.03;;;2.25;;
53040;SDS011;39326;42.650;23.248;2022-08-01T14:30:13;2.88;;;2.30;;
53040;SDS011;39326;42.650;23.248;2022-08-01T14:32:39;2.38;;;2.17;;
53040;SDS011;39326;42.650;23.248;2022-08-01T14:35:05;2.53;;;2.33;;
53040;SDS011;39326;42.650;23.248;2022-08-01T14:37:32;2.05;;;1.92;;
53040;SDS011;39326;42.650;23.248;2022-08-01T14:39:59;3.22;;;2.15;;
53040;SDS011;39326;42.650;23.248;2022-08-01T14:42:30;3.55;;;2.20;;
53040;SDS011;39326;42.650;23.248;2022-08-01T14:44:56;2.13;;;1.98;;
53040;SDS011;39326;42.650;23.248;2022-08-01T14:47:22;5.95;;;2.10;;
53040;SDS011;39326;42.650;23.248;2022-08-01T14:49:49;4.80;;;1.92;;
53040;SDS011;39326;42.650;23.248;2022-08-01T14:52:14;2.72;;;2.10;;
53040;SDS011;39326;42.650;23.248;2022-08-01T14:54:41;1.75;;;1.65;;
53040;SDS011;39326;42.650;23.248;2022-08-01T14:57:07;1.75;;;1.65;;
53040;SDS011;39326;42.650;23.248;2022-08-01T14:59:34;2.28;;;2.03;;
53040;SDS011;39326;42.650;23.248;2022-08-01T15:02:00;2.05;;;1.90;;
53040;SDS011;39326;42.650;23.248;2022-08-01T15:04:26;2.03;;;1.88;;
53040;SDS011;39326;42.650;23.248;2022-08-01T15:06:52;1.98;;;1.88;;
53040;SDS011;39326;42.650;23.248;2022-08-01T15:09:18;2.20;;;2.00;;
53040;SDS011;39326;42.650;23.248;2022-08-01T15:11:44;2.70;;;1.50;;
53040;SDS011;39326;42.650;23.248;2022-08-01T15:14:12;3.67;;;1.90;;
53040;SDS011;39326;42.650;23.248;2022-08-01T15:16:55;2.10;;;2.00;;
53040;SDS011;39326;42.650;23.248;2022-08-01T15:19:21;2.35;;;1.90;;
53040;SDS011;39326;42.650;23.248;2022-08-01T15:21:47;1.90;;;1.70;;
53040;SDS011;39326;42.650;23.248;2022-08-01T15:24:14;2.10;;;1.90;;
53040;SDS011;39326;42.650;23.248;2022-08-01T15:26:40;1.80;;;1.70;;
53040;SDS011;39326;42.650;23.248;2022-08-01T15:29:06;1.77;;;1.67;;